sensor_id;sensor_type;location;lat;lon;timestamp;pressure;altitude;pressure_sealevel;temperature;humidity
76866;BME280;66647;52.124;5.416;2023-06-05T00:00:18;102456.25;;;12.89;71.70
76866;BME280;66647;52.124;5.416;2023-06-05T00:02:45;102463.56;;;12.79;72.04
76866;BME280;66647;52.124;5.416;2023-06-05T00:05:12;102460.28;;;12.77;71.83
76866;BME280;66647;52.124;5.416;2023-06-05T00:07:39;102462.00;;;12.73;72.16
76866;BME280;66647;52.124;5.416;2023-06-05T00:10:07;102460.06;;;12.74;71.77
76866;BME280;66647;52.124;5.416;2023-06-05T00:12:34;102465.34;;;12.70;72.07
76866;BME280;66647;52.124;5.416;2023-06-05T00:15:01;102459.44;;;12.63;72.71
76866;BME280;66647;52.124;5.416;2023-06-05T00:17:28;102461.16;;;12.59;72.79
76866;BME280;66647;52.124;5.416;2023-06-05T00:19:57;102453.13;;;12.63;72.96
76866;BME280;66647;52.124;5.416;2023-06-05T00:22:26;102455.44;;;12.56;72.80
76866;BME280;66647;52.124;5.416;2023-06-05T00:25:00;102450.81;;;12.51;72.83
76866;BME280;66647;52.124;5.416;2023-06-05T00:27:27;102452.16;;;12.54;73.08
76866;BME280;66647;52.124;5.416;2023-06-05T00:29:54;102449.19;;;12.50;72.96
76866;BME280;66647;52.124;5.416;2023-06-05T00:32:21;102456.91;;;12.48;73.44
76866;BME280;66647;52.124;5.416;2023-06-05T00:34:47;102447.91;;;12.42;73.46
76866;BME280;66647;52.124;5.416;2023-06-05T00:37:16;102449.34;;;12.40;73.87
76866;BME280;66647;52.124;5.416;2023-06-05T00:39:42;102452.38;;;12.38;73.49
76866;BME280;66647;52.124;5.416;2023-06-05T00:42:09;102456.34;;;12.32;74.08
76866;BME280;66647;52.124;5.416;2023-06-05T00:44:36;102458.06;;;12.28;73.52
76866;BME280;66647;52.124;5.416;2023-06-05T00:47:03;102454.56;;;12.23;74.36
76866;BME280;66647;52.124;5.416;2023-06-05T00:49:31;102457.84;;;12.25;74.11
76866;BME280;66647;52.124;5.416;2023-06-05T00:51:59;102460.88;;;12.23;74.51
76866;BME280;66647;52.124;5.416;2023-06-05T00:54:25;102470.78;;;12.24;74.09
76866;BME280;66647;52.124;5.416;2023-06-05T00:56:52;102456.56;;;12.17;74.59
76866;BME280;66647;52.124;5.416;2023-06-05T00:59:19;102459.59;;;12.16;74.69
76866;BME280;66647;52.124;5.416;2023-06-05T01:01:46;102446.53;;;12.07;74.77
76866;BME280;66647;52.124;5.416;2023-06-05T01:04:15;102454.53;;;12.04;74.73
76866;BME280;66647;52.124;5.416;2023-06-05T01:06:42;102465.03;;;12.02;75.67
76866;BME280;66647;52.124;5.416;2023-06-05T01:09:10;102456.84;;;11.97;75.07
76866;BME280;66647;52.124;5.416;2023-06-05T01:11:45;102456.28;;;12.00;74.90
76866;BME280;66647;52.124;5.416;2023-06-05T01:14:24;102464.59;;;11.95;75.28
76866;BME280;66647;52.124;5.416;2023-06-05T01:16:54;102451.19;;;11.88;75.69
76866;BME280;66647;52.124;5.416;2023-06-05T01:19:23;102448.75;;;11.87;75.15
76866;BME280;66647;52.124;5.416;2023-06-05T01:21:58;102454.06;;;11.78;75.69
76866;BME280;66647;52.124;5.416;2023-06-05T01:24:26;102452.97;;;11.74;75.49
76866;BME280;66647;52.124;5.416;2023-06-05T01:29:24;102440.94;;;11.70;76.31
76866;BME280;66647;52.124;5.416;2023-06-05T01:32:00;102437.75;;;11.63;76.24
76866;BME280;66647;52.124;5.416;2023-06-05T01:34:29;102438.63;;;11.58;76.34
76866;BME280;66647;52.124;5.416;2023-06-05T01:36:56;102449.91;;;11.57;76.48
76866;BME280;66647;52.124;5.416;2023-06-05T01:39:24;102436.47;;;11.55;76.64
76866;BME280;66647;52.124;5.416;2023-06-05T01:41:54;102441.44;;;11.53;76.60
76866;BME280;66647;52.124;5.416;2023-06-05T01:44:24;102438.16;;;11.51;76.94
76866;BME280;66647;52.124;5.416;2023-06-05T01:46:52;102429.91;;;11.51;76.85
76866;BME280;66647;52.124;5.416;2023-06-05T01:49:19;102439.56;;;11.49;76.83
76866;BME280;66647;52.124;5.416;2023-06-05T01:51:46;102430.78;;;11.47;76.92
76866;BME280;66647;52.124;5.416;2023-06-05T01:54:13;102431.91;;;11.45;76.99
76866;BME280;66647;52.124;5.416;2023-06-05T01:56:42;102433.59;;;11.41;77.02
76866;BME280;66647;52.124;5.416;2023-06-05T01:59:10;102424.53;;;11.41;77.00
76866;BME280;66647;52.124;5.416;2023-06-05T02:01:37;102430.31;;;11.39;76.76
76866;BME280;66647;52.124;5.416;2023-06-05T02:04:04;102426.59;;;11.30;77.54
76866;BME280;66647;52.124;5.416;2023-06-05T02:06:33;102426.38;;;11.27;77.37
76866;BME280;66647;52.124;5.416;2023-06-05T02:09:09;102424.44;;;11.27;77.45
76866;BME280;66647;52.124;5.416;2023-06-05T02:11:39;102423.09;;;11.25;77.45
76866;BME280;66647;52.124;5.416;2023-06-05T02:14:09;102417.38;;;11.21;77.26
76866;BME280;66647;52.124;5.416;2023-06-05T02:16:40;102419.59;;;11.19;77.89
76866;BME280;66647;52.124;5.416;2023-06-05T02:19:07;102424.59;;;11.12;78.26
76866;BME280;66647;52.124;5.416;2023-06-05T02:21:34;102421.84;;;11.12;78.22
76866;BME280;66647;52.124;5.416;2023-06-05T02:24:02;102420.78;;;11.08;78.20
76866;BME280;66647;52.124;5.416;2023-06-05T02:26:29;102412.63;;;11.03;78.10
76866;BME280;66647;52.124;5.416;2023-06-05T02:28:56;102415.38;;;11.03;78.35
76866;BME280;66647;52.124;5.416;2023-06-05T02:31:24;102408.81;;;10.99;78.51
76866;BME280;66647;52.124;5.416;2023-06-05T02:33:53;102415.72;;;10.96;78.46
76866;BME280;66647;52.124;5.416;2023-06-05T02:36:21;102416.53;;;10.97;78.47
76866;BME280;66647;52.124;5.416;2023-06-05T02:38:48;102416.56;;;10.92;78.62
76866;BME280;66647;52.124;5.416;2023-06-05T02:41:20;102410.56;;;10.90;78.83
76866;BME280;66647;52.124;5.416;2023-06-05T02:43:49;102406.47;;;10.87;78.54
76866;BME280;66647;52.124;5.416;2023-06-05T02:46:16;102410.06;;;10.83;78.83
76866;BME280;66647;52.124;5.416;2023-06-05T02:48:44;102411.47;;;10.80;78.94
76866;BME280;66647;52.124;5.416;2023-06-05T02:51:11;102408.44;;;10.82;78.88
76866;BME280;66647;52.124;5.416;2023-06-05T02:53:40;102409.53;;;10.81;78.73
76866;BME280;66647;52.124;5.416;2023-06-05T02:56:06;102410.41;;;10.76;79.22
76866;BME280;66647;52.124;5.416;2023-06-05T02:58:33;102406.03;;;10.75;79.13
76866;BME280;66647;52.124;5.416;2023-06-05T03:01:01;102407.94;;;10.74;79.31
76866;BME280;66647;52.124;5.416;2023-06-05T03:03:37;102405.28;;;10.69;79.40
76866;BME280;66647;52.124;5.416;2023-06-05T03:06:04;102404.75;;;10.67;79.35
76866;BME280;66647;52.124;5.416;2023-06-05T03:08:34;102404.22;;;10.65;79.15
76866;BME280;66647;52.124;5.416;2023-06-05T03:11:05;102393.00;;;10.62;78.90
76866;BME280;66647;52.124;5.416;2023-06-05T03:13:32;102404.25;;;10.60;79.44
76866;BME280;66647;52.124;5.416;2023-06-05T03:16:01;102397.69;;;10.56;79.49
76866;BME280;66647;52.124;5.416;2023-06-05T03:18:32;102393.03;;;10.57;79.50
76866;BME280;66647;52.124;5.416;2023-06-05T03:20:59;102396.06;;;10.55;79.64
76866;BME280;66647;52.124;5.416;2023-06-05T03:23:28;102398.84;;;10.50;79.81
76866;BME280;66647;52.124;5.416;2023-06-05T03:25:56;102388.72;;;10.46;79.91
76866;BME280;66647;52.124;5.416;2023-06-05T03:28:24;102389.00;;;10.44;79.74
76866;BME280;66647;52.124;5.416;2023-06-05T03:30:54;102385.69;;;10.47;78.97
76866;BME280;66647;52.124;5.416;2023-06-05T03:33:24;102392.31;;;10.41;80.08
76866;BME280;66647;52.124;5.416;2023-06-05T03:35:51;102389.09;;;10.39;80.20
76866;BME280;66647;52.124;5.416;2023-06-05T03:38:18;102386.38;;;10.34;80.18
76866;BME280;66647;52.124;5.416;2023-06-05T03:40:46;102389.94;;;10.34;80.11
76866;BME280;66647;52.124;5.416;2023-06-05T03:43:16;102386.09;;;10.35;79.82
76866;BME280;66647;52.124;5.416;2023-06-05T03:45:43;102389.41;;;10.32;80.19
76866;BME280;66647;52.124;5.416;2023-06-05T03:48:10;102394.06;;;10.32;80.15
76866;BME280;66647;52.124;5.416;2023-06-05T03:50:40;102389.97;;;10.29;80.42
76866;BME280;66647;52.124;5.416;2023-06-05T03:53:07;102392.72;;;10.29;80.60
76866;BME280;66647;52.124;5.416;2023-06-05T03:55:37;102397.91;;;10.31;80.51
76866;BME280;66647;52.124;5.416;2023-06-05T03:58:19;102392.44;;;10.31;80.32
76866;BME280;66647;52.124;5.416;2023-06-05T04:00:48;102388.59;;;10.32;80.44
76866;BME280;66647;52.124;5.416;2023-06-05T04:03:18;102386.38;;;10.34;80.29
76866;BME280;66647;52.124;5.416;2023-06-05T04:05:47;102386.38;;;10.34;80.21
76866;BME280;66647;52.124;5.416;2023-06-05T04:08:13;102394.88;;;10.32;80.33
76866;BME280;66647;52.124;5.416;2023-06-05T04:10:40;102396.53;;;10.33;80.46
76866;BME280;66647;52.124;5.416;2023-06-05T04:13:06;102399.56;;;10.32;80.51
76866;BME280;66647;52.124;5.416;2023-06-05T04:15:35;102396.00;;;10.31;80.33
76866;BME280;66647;52.124;5.416;2023-06-05T04:18:03;102394.59;;;10.34;80.46
76866;BME280;66647;52.124;5.416;2023-06-05T04:20:30;102399.50;;;10.37;80.46
76866;BME280;66647;52.124;5.416;2023-06-05T04:22:57;102401.16;;;10.38;80.43
76866;BME280;66647;52.124;5.416;2023-06-05T04:25:25;102399.22;;;10.38;80.47
76866;BME280;66647;52.124;5.416;2023-06-05T04:27:55;102396.78;;;10.37;80.80
76866;BME280;66647;52.124;5.416;2023-06-05T04:30:25;102401.44;;;10.36;80.58
76866;BME280;66647;52.124;5.416;2023-06-05T04:32:52;102400.06;;;10.39;80.64
76866;BME280;66647;52.124;5.416;2023-06-05T04:35:23;102401.66;;;10.40;80.56
76866;BME280;66647;52.124;5.416;2023-06-05T04:37:50;102412.06;;;10.43;80.69
76866;BME280;66647;52.124;5.416;2023-06-05T04:40:18;102414.81;;;10.43;80.77
76866;BME280;66647;52.124;5.416;2023-06-05T04:42:49;102409.84;;;10.45;80.63
76866;BME280;66647;52.124;5.416;2023-06-05T04:45:18;102416.38;;;10.54;80.84
76866;BME280;66647;52.124;5.416;2023-06-05T04:47:46;102414.91;;;10.67;80.53
76866;BME280;66647;52.124;5.416;2023-06-05T04:50:27;102415.66;;;10.72;80.33
76866;BME280;66647;52.124;5.416;2023-06-05T04:53:07;102422.19;;;10.76;80.29
76866;BME280;66647;52.124;5.416;2023-06-05T04:55:35;102427.31;;;10.88;80.15
76866;BME280;66647;52.124;5.416;2023-06-05T04:58:02;102418.75;;;10.95;79.75
76866;BME280;66647;52.124;5.416;2023-06-05T05:00:31;102412.69;;;10.98;79.83
76866;BME280;66647;52.124;5.416;2023-06-05T05:03:00;102421.69;;;11.03;79.83
76866;BME280;66647;52.124;5.416;2023-06-05T05:05:27;102428.94;;;11.18;79.45
76866;BME280;66647;52.124;5.416;2023-06-05T05:07:55;102426.72;;;11.20;79.30
76866;BME280;66647;52.124;5.416;2023-06-05T05:10:23;102424.44;;;11.27;78.97
76866;BME280;66647;52.124;5.416;2023-06-05T05:12:53;102421.44;;;11.48;78.70
76866;BME280;66647;52.124;5.416;2023-06-05T05:15:20;102419.00;;;11.46;78.21
76866;BME280;66647;52.124;5.416;2023-06-05T05:17:48;102426.88;;;11.53;78.57
76866;BME280;66647;52.124;5.416;2023-06-05T05:20:16;102428.91;;;11.90;78.11
76866;BME280;66647;52.124;5.416;2023-06-05T05:22:43;102429.66;;;12.33;76.05
76866;BME280;66647;52.124;5.416;2023-06-05T05:25:10;102423.38;;;12.65;75.38
76866;BME280;66647;52.124;5.416;2023-06-05T05:27:36;102419.56;;;13.07;73.94
76866;BME280;66647;52.124;5.416;2023-06-05T05:30:03;102423.22;;;13.02;72.86
76866;BME280;66647;52.124;5.416;2023-06-05T05:32:31;102424.53;;;12.91;72.91
76866;BME280;66647;52.124;5.416;2023-06-05T05:34:58;102420.47;;;13.02;73.30
76866;BME280;66647;52.124;5.416;2023-06-05T05:37:25;102433.94;;;13.04;72.67
76866;BME280;66647;52.124;5.416;2023-06-05T05:39:53;102426.28;;;13.01;72.17
76866;BME280;66647;52.124;5.416;2023-06-05T05:42:22;102425.38;;;12.92;72.67
76866;BME280;66647;52.124;5.416;2023-06-05T05:44:48;102417.84;;;12.97;72.84
76866;BME280;66647;52.124;5.416;2023-06-05T05:47:15;102430.84;;;13.24;72.71
76866;BME280;66647;52.124;5.416;2023-06-05T05:49:42;102419.50;;;13.39;72.27
76866;BME280;66647;52.124;5.416;2023-06-05T05:52:09;102422.88;;;13.50;71.13
76866;BME280;66647;52.124;5.416;2023-06-05T05:54:35;102429.00;;;13.61;71.14
76866;BME280;66647;52.124;5.416;2023-06-05T05:57:02;102423.00;;;13.59;70.91
76866;BME280;66647;52.124;5.416;2023-06-05T05:59:31;102424.09;;;13.71;70.40
76866;BME280;66647;52.124;5.416;2023-06-05T06:01:57;102418.34;;;13.95;70.15
76866;BME280;66647;52.124;5.416;2023-06-05T06:04:27;102426.78;;;14.35;68.29
76866;BME280;66647;52.124;5.416;2023-06-05T06:06:53;102422.38;;;14.34;68.56
76866;BME280;66647;52.124;5.416;2023-06-05T06:09:22;102419.13;;;14.32;67.87
76866;BME280;66647;52.124;5.416;2023-06-05T06:11:49;102430.53;;;14.53;67.35
76866;BME280;66647;52.124;5.416;2023-06-05T06:14:16;102425.41;;;14.68;66.71
76866;BME280;66647;52.124;5.416;2023-06-05T06:16:42;102420.84;;;14.64;68.21
76866;BME280;66647;52.124;5.416;2023-06-05T06:19:10;102418.84;;;15.09;65.63
76866;BME280;66647;52.124;5.416;2023-06-05T06:21:40;102425.00;;;15.45;64.87
76866;BME280;66647;52.124;5.416;2023-06-05T06:24:07;102417.63;;;15.81;62.82
76866;BME280;66647;52.124;5.416;2023-06-05T06:26:34;102430.59;;;15.63;63.52
76866;BME280;66647;52.124;5.416;2023-06-05T06:29:04;102422.84;;;15.34;64.15
76866;BME280;66647;52.124;5.416;2023-06-05T06:31:31;102430.78;;;15.27;64.03
76866;BME280;66647;52.124;5.416;2023-06-05T06:33:57;102432.25;;;15.24;64.29
76866;BME280;66647;52.124;5.416;2023-06-05T06:36:26;102424.44;;;15.66;63.16
76866;BME280;66647;52.124;5.416;2023-06-05T06:38:53;102422.06;;;16.07;61.86
76866;BME280;66647;52.124;5.416;2023-06-05T06:41:22;102428.41;;;16.25;61.38
76866;BME280;66647;52.124;5.416;2023-06-05T06:43:50;102432.47;;;16.28;60.60
76866;BME280;66647;52.124;5.416;2023-06-05T06:46:17;102430.53;;;16.37;59.89
76866;BME280;66647;52.124;5.416;2023-06-05T06:48:43;102426.28;;;16.48;60.79
76866;BME280;66647;52.124;5.416;2023-06-05T06:51:10;102422.22;;;16.45;60.60
76866;BME280;66647;52.124;5.416;2023-06-05T06:53:39;102432.16;;;16.46;62.57
76866;BME280;66647;52.124;5.416;2023-06-05T06:56:07;102424.50;;;16.35;60.81
76866;BME280;66647;52.124;5.416;2023-06-05T06:58:35;102431.31;;;16.89;59.54
76866;BME280;66647;52.124;5.416;2023-06-05T07:01:02;102420.16;;;17.06;58.60
76866;BME280;66647;52.124;5.416;2023-06-05T07:03:29;102437.13;;;17.43;57.45
76866;BME280;66647;52.124;5.416;2023-06-05T07:05:56;102438.31;;;17.63;57.04
76866;BME280;66647;52.124;5.416;2023-06-05T07:08:22;102438.00;;;17.94;57.16
76866;BME280;66647;52.124;5.416;2023-06-05T07:10:51;102429.63;;;18.02;54.96
76866;BME280;66647;52.124;5.416;2023-06-05T07:13:21;102426.84;;;18.02;55.43
76866;BME280;66647;52.124;5.416;2023-06-05T07:15:49;102438.41;;;18.46;54.93
76866;BME280;66647;52.124;5.416;2023-06-05T07:18:17;102435.53;;;18.55;53.94
76866;BME280;66647;52.124;5.416;2023-06-05T07:20:44;102438.66;;;18.53;53.55
76866;BME280;66647;52.124;5.416;2023-06-05T07:23:10;102434.97;;;18.49;53.51
76866;BME280;66647;52.124;5.416;2023-06-05T07:25:39;102436.44;;;18.67;52.89
76866;BME280;66647;52.124;5.416;2023-06-05T07:28:09;102432.25;;;19.06;52.29
76866;BME280;66647;52.124;5.416;2023-06-05T07:30:37;102435.38;;;19.05;51.92
76866;BME280;66647;52.124;5.416;2023-06-05T07:33:03;102429.91;;;18.96;51.97
76866;BME280;66647;52.124;5.416;2023-06-05T07:35:35;102439.06;;;18.97;52.46
76866;BME280;66647;52.124;5.416;2023-06-05T07:38:02;102433.78;;;19.16;51.51
76866;BME280;66647;52.124;5.416;2023-06-05T07:40:29;102431.25;;;19.35;51.06
76866;BME280;66647;52.124;5.416;2023-06-05T07:42:56;102428.13;;;19.37;50.32
76866;BME280;66647;52.124;5.416;2023-06-05T07:45:22;102428.81;;;19.46;50.87
76866;BME280;66647;52.124;5.416;2023-06-05T07:47:50;102437.75;;;19.64;49.93
76866;BME280;66647;52.124;5.416;2023-06-05T07:50:17;102428.13;;;19.61;50.12
76866;BME280;66647;52.124;5.416;2023-06-05T07:52:43;102427.28;;;19.85;49.57
76866;BME280;66647;52.124;5.416;2023-06-05T07:55:10;102423.09;;;20.03;48.99
76866;BME280;66647;52.124;5.416;2023-06-05T07:57:36;102433.06;;;20.04;49.08
76866;BME280;66647;52.124;5.416;2023-06-05T08:03:10;102430.13;;;20.53;48.58
76866;BME280;66647;52.124;5.416;2023-06-05T08:06:29;102435.31;;;20.67;46.80
76866;BME280;66647;52.124;5.416;2023-06-05T08:09:14;102437.72;;;20.68;47.18
76866;BME280;66647;52.124;5.416;2023-06-05T08:11:41;102428.88;;;20.94;47.01
76866;BME280;66647;52.124;5.416;2023-06-05T08:14:22;102430.44;;;21.39;46.56
76866;BME280;66647;52.124;5.416;2023-06-05T08:17:18;102432.94;;;21.60;45.37
76866;BME280;66647;52.124;5.416;2023-06-05T08:21:02;102437.00;;;21.31;46.55
76866;BME280;66647;52.124;5.416;2023-06-05T08:23:29;102419.25;;;21.55;46.39
76866;BME280;66647;52.124;5.416;2023-06-05T08:25:56;102420.41;;;21.69;45.38
76866;BME280;66647;52.124;5.416;2023-06-05T08:28:22;102424.16;;;21.77;45.23
76866;BME280;66647;52.124;5.416;2023-06-05T08:30:49;102424.75;;;21.86;44.45
76866;BME280;66647;52.124;5.416;2023-06-05T08:33:21;102421.09;;;22.17;44.27
76866;BME280;66647;52.124;5.416;2023-06-05T08:35:47;102420.34;;;22.20;42.47
76866;BME280;66647;52.124;5.416;2023-06-05T08:38:14;102413.88;;;22.16;43.08
76866;BME280;66647;52.124;5.416;2023-06-05T08:40:42;102419.91;;;21.83;43.45
76866;BME280;66647;52.124;5.416;2023-06-05T08:43:09;102404.56;;;21.58;43.54
76866;BME280;66647;52.124;5.416;2023-06-05T08:45:36;102408.38;;;21.85;43.77
76866;BME280;66647;52.124;5.416;2023-06-05T08:48:05;102412.19;;;22.11;43.97
76866;BME280;66647;52.124;5.416;2023-06-05T08:50:32;102410.25;;;22.54;42.80
76866;BME280;66647;52.124;5.416;2023-06-05T08:53:01;102408.78;;;22.60;41.59
76866;BME280;66647;52.124;5.416;2023-06-05T08:55:29;102401.78;;;22.70;41.81
76866;BME280;66647;52.124;5.416;2023-06-05T08:57:56;102397.69;;;23.09;42.04
76866;BME280;66647;52.124;5.416;2023-06-05T09:00:25;102403.81;;;23.41;41.12
76866;BME280;66647;52.124;5.416;2023-06-05T09:02:51;102402.16;;;23.37;40.41
76866;BME280;66647;52.124;5.416;2023-06-05T09:05:18;102403.50;;;23.20;41.17
76866;BME280;66647;52.124;5.416;2023-06-05T09:07:45;102412.19;;;23.15;40.82
76866;BME280;66647;52.124;5.416;2023-06-05T09:10:25;102404.91;;;23.10;41.82
76866;BME280;66647;52.124;5.416;2023-06-05T09:12:57;102400.69;;;23.20;41.14
76866;BME280;66647;52.124;5.416;2023-06-05T09:15:30;102399.66;;;23.55;40.40
76866;BME280;66647;52.124;5.416;2023-06-05T09:20:37;102391.72;;;24.17;39.27
76866;BME280;66647;52.124;5.416;2023-06-05T09:23:21;102391.53;;;24.32;39.35
76866;BME280;66647;52.124;5.416;2023-06-05T09:25:54;102391.38;;;24.22;38.07
76866;BME280;66647;52.124;5.416;2023-06-05T09:28:21;102389.50;;;24.29;38.82
76866;BME280;66647;52.124;5.416;2023-06-05T09:33:22;102395.72;;;24.49;38.73
76866;BME280;66647;52.124;5.416;2023-06-05T09:38:37;102386.50;;;24.49;38.32
76866;BME280;66647;52.124;5.416;2023-06-05T09:41:09;102381.75;;;24.53;38.63
76866;BME280;66647;52.124;5.416;2023-06-05T09:43:37;102386.75;;;24.33;38.61
76866;BME280;66647;52.124;5.416;2023-06-05T09:46:08;102379.69;;;24.50;38.34
76866;BME280;66647;52.124;5.416;2023-06-05T09:48:38;102382.50;;;24.50;37.26
76866;BME280;66647;52.124;5.416;2023-06-05T09:53:43;102374.63;;;24.99;37.42
76866;BME280;66647;52.124;5.416;2023-06-05T09:56:15;102378.50;;;24.91;36.83
76866;BME280;66647;52.124;5.416;2023-06-05T09:58:49;102364.22;;;25.07;37.13
76866;BME280;66647;52.124;5.416;2023-06-05T10:01:23;102375.75;;;24.95;36.35
76866;BME280;66647;52.124;5.416;2023-06-05T10:04:05;102373.97;;;25.20;37.12
76866;BME280;66647;52.124;5.416;2023-06-05T10:06:33;102370.78;;;25.22;37.71
76866;BME280;66647;52.124;5.416;2023-06-05T10:09:00;102360.50;;;25.43;37.11
76866;BME280;66647;52.124;5.416;2023-06-05T10:11:27;102369.84;;;25.62;37.37
76866;BME280;66647;52.124;5.416;2023-06-05T10:13:54;102364.00;;;25.88;36.00
76866;BME280;66647;52.124;5.416;2023-06-05T10:16:21;102360.81;;;26.00;37.07
76866;BME280;66647;52.124;5.416;2023-06-05T10:18:54;102365.59;;;25.89;36.37
76866;BME280;66647;52.124;5.416;2023-06-05T10:21:21;102364.78;;;25.85;35.59
76866;BME280;66647;52.124;5.416;2023-06-05T10:23:59;102355.63;;;26.09;35.86
76866;BME280;66647;52.124;5.416;2023-06-05T10:31:53;102350.84;;;26.14;36.65
76866;BME280;66647;52.124;5.416;2023-06-05T10:34:39;102347.63;;;26.15;36.25
76866;BME280;66647;52.124;5.416;2023-06-05T10:39:41;102342.44;;;26.21;34.98
76866;BME280;66647;52.124;5.416;2023-06-05T10:42:08;102345.78;;;26.62;34.76
76866;BME280;66647;52.124;5.416;2023-06-05T10:44:43;102346.56;;;26.73;33.65
76866;BME280;66647;52.124;5.416;2023-06-05T10:52:48;102342.50;;;26.42;34.30
76866;BME280;66647;52.124;5.416;2023-06-05T10:55:15;102345.28;;;26.35;35.21
76866;BME280;66647;52.124;5.416;2023-06-05T10:58:09;102340.91;;;26.48;34.93
76866;BME280;66647;52.124;5.416;2023-06-05T11:00:37;102348.91;;;26.39;34.83
76866;BME280;66647;52.124;5.416;2023-06-05T11:03:05;102335.25;;;26.37;35.50
76866;BME280;66647;52.124;5.416;2023-06-05T11:05:34;102336.88;;;26.46;35.77
76866;BME280;66647;52.124;5.416;2023-06-05T11:08:16;102323.25;;;26.80;35.50
76866;BME280;66647;52.124;5.416;2023-06-05T11:11:06;102339.34;;;26.83;34.28
76866;BME280;66647;52.124;5.416;2023-06-05T11:13:55;102328.47;;;26.85;34.30
76866;BME280;66647;52.124;5.416;2023-06-05T11:16:34;102332.50;;;26.84;34.74
76866;BME280;66647;52.124;5.416;2023-06-05T11:22:09;102325.25;;;26.79;35.87
76866;BME280;66647;52.124;5.416;2023-06-05T11:24:37;102318.03;;;26.89;34.49
76866;BME280;66647;52.124;5.416;2023-06-05T11:27:05;102322.06;;;27.05;34.59
76866;BME280;66647;52.124;5.416;2023-06-05T11:29:32;102316.00;;;26.71;33.43
76866;BME280;66647;52.124;5.416;2023-06-05T11:31:59;102319.22;;;26.88;35.05
76866;BME280;66647;52.124;5.416;2023-06-05T11:34:26;102322.47;;;27.04;34.66
76866;BME280;66647;52.124;5.416;2023-06-05T11:36:56;102311.59;;;26.92;34.40
76866;BME280;66647;52.124;5.416;2023-06-05T11:39:44;102316.81;;;26.68;34.93
76866;BME280;66647;52.124;5.416;2023-06-05T11:42:11;102304.72;;;26.43;36.34
76866;BME280;66647;52.124;5.416;2023-06-05T11:44:37;102309.94;;;26.34;35.72
76866;BME280;66647;52.124;5.416;2023-06-05T11:47:04;102309.00;;;26.01;35.46
76866;BME280;66647;52.124;5.416;2023-06-05T11:49:31;102311.41;;;25.92;36.30
76866;BME280;66647;52.124;5.416;2023-06-05T11:51:59;102308.97;;;25.84;36.75
76866;BME280;66647;52.124;5.416;2023-06-05T11:54:29;102304.19;;;26.02;37.09
76866;BME280;66647;52.124;5.416;2023-06-05T11:56:57;102299.75;;;25.90;36.54
76866;BME280;66647;52.124;5.416;2023-06-05T11:59:25;102302.53;;;25.87;36.74
76866;BME280;66647;52.124;5.416;2023-06-05T12:01:51;102303.78;;;25.96;37.43
76866;BME280;66647;52.124;5.416;2023-06-05T12:04:21;102305.34;;;25.83;36.95
76866;BME280;66647;52.124;5.416;2023-06-05T12:06:48;102287.75;;;26.07;36.55
76866;BME280;66647;52.124;5.416;2023-06-05T12:09:15;102297.44;;;26.28;37.01
76866;BME280;66647;52.124;5.416;2023-06-05T12:11:43;102295.00;;;26.12;35.45
76866;BME280;66647;52.124;5.416;2023-06-05T12:14:12;102296.56;;;26.02;37.34
76866;BME280;66647;52.124;5.416;2023-06-05T12:16:40;102293.16;;;25.58;37.74
76866;BME280;66647;52.124;5.416;2023-06-05T12:19:14;102297.91;;;25.47;38.88
76866;BME280;66647;52.124;5.416;2023-06-05T12:21:47;102299.91;;;25.46;38.68
76866;BME280;66647;52.124;5.416;2023-06-05T12:24:14;102305.16;;;25.51;38.23
76866;BME280;66647;52.124;5.416;2023-06-05T12:26:48;102295.06;;;25.39;39.05
76866;BME280;66647;52.124;5.416;2023-06-05T12:29:18;102287.44;;;25.40;38.90
76866;BME280;66647;52.124;5.416;2023-06-05T12:31:44;102289.06;;;25.44;39.21
76866;BME280;66647;52.124;5.416;2023-06-05T12:34:11;102288.22;;;25.33;38.97
76866;BME280;66647;52.124;5.416;2023-06-05T12:36:42;102291.84;;;25.37;39.89
76866;BME280;66647;52.124;5.416;2023-06-05T12:39:10;102289.38;;;25.25;40.09
76866;BME280;66647;52.124;5.416;2023-06-05T12:41:37;102296.06;;;25.06;40.71
76866;BME280;66647;52.124;5.416;2023-06-05T12:44:04;102286.50;;;25.18;39.51
76866;BME280;66647;52.124;5.416;2023-06-05T12:46:31;102284.19;;;25.34;39.10
76866;BME280;66647;52.124;5.416;2023-06-05T12:48:59;102289.19;;;24.97;39.43
76866;BME280;66647;52.124;5.416;2023-06-05T12:51:26;102291.19;;;24.96;39.96
76866;BME280;66647;52.124;5.416;2023-06-05T12:53:56;102281.81;;;24.82;40.50
76866;BME280;66647;52.124;5.416;2023-06-05T12:56:24;102283.81;;;24.81;41.09
76866;BME280;66647;52.124;5.416;2023-06-05T12:58:54;102274.38;;;25.03;40.51
76866;BME280;66647;52.124;5.416;2023-06-05T13:01:23;102277.56;;;25.02;40.67
76866;BME280;66647;52.124;5.416;2023-06-05T13:03:50;102279.25;;;25.14;40.30
76866;BME280;66647;52.124;5.416;2023-06-05T13:06:17;102270.00;;;25.09;39.99
76866;BME280;66647;52.124;5.416;2023-06-05T13:08:44;102270.66;;;24.92;39.99
76866;BME280;66647;52.124;5.416;2023-06-05T13:11:13;102260.72;;;25.02;40.43
76866;BME280;66647;52.124;5.416;2023-06-05T13:13:40;102270.38;;;25.01;41.21
76866;BME280;66647;52.124;5.416;2023-06-05T13:16:07;102268.34;;;24.98;40.96
76866;BME280;66647;52.124;5.416;2023-06-05T13:18:35;102254.09;;;24.76;41.34
76866;BME280;66647;52.124;5.416;2023-06-05T13:21:03;102251.59;;;24.61;41.12
76866;BME280;66647;52.124;5.416;2023-06-05T13:23:31;102247.56;;;24.58;41.05
76866;BME280;66647;52.124;5.416;2023-06-05T13:26:00;102248.44;;;24.69;41.37
76866;BME280;66647;52.124;5.416;2023-06-05T13:28:27;102245.19;;;24.64;41.33
76866;BME280;66647;52.124;5.416;2023-06-05T13:30:54;102244.34;;;24.56;42.14
76866;BME280;66647;52.124;5.416;2023-06-05T13:33:22;102230.00;;;24.68;42.27